createdAt,value
2017-04-03T19:28:34.001Z,1012.63
2017-04-03T19:29:48.447Z,1012.68
2017-04-03T19:31:02.889Z,1012.6
2017-04-03T19:32:17.177Z,1012.79
2017-04-03T19:33:33.555Z,1012.64
2017-04-03T19:34:47.938Z,1012.7
2017-04-03T19:36:04.681Z,1012.66
2017-04-03T19:37:21.136Z,1012.77
2017-04-03T19:38:35.372Z,1012.68
2017-04-03T19:39:49.006Z,1012.76
2017-04-03T19:41:03.118Z,1012.7
2017-04-03T19:42:18.011Z,1012.87
2017-04-03T19:43:33.935Z,1012.73
2017-04-03T19:44:47.836Z,1012.83
2017-04-03T19:46:40.286Z,1012.71
2017-04-03T19:48:01.501Z,1012.96
2017-04-03T19:49:16.613Z,1012.73
2017-04-03T19:50:31.328Z,1012.73
2017-04-03T19:51:46.981Z,1012.75
2017-04-03T19:53:03.665Z,1012.75
2017-04-03T19:54:18.737Z,1012.85
2017-04-03T19:55:41.315Z,1012.81
2017-04-03T19:56:57.383Z,1012.87
2017-04-03T19:58:11.582Z,1012.81
2017-04-03T19:59:26.901Z,1012.79
2017-04-03T20:00:41.884Z,1013.08
2017-04-03T20:01:55.764Z,1013.07
2017-04-03T20:03:13.491Z,1013.02
2017-04-03T20:04:31.264Z,1012.89
2017-04-03T20:05:47.291Z,1013.03
2017-04-03T20:07:02.937Z,1012.77
2017-04-03T20:08:20.940Z,1012.82
2017-04-03T20:09:35.080Z,1012.8
2017-04-03T20:10:49.053Z,1012.89
2017-04-03T20:12:03.176Z,1012.91
2017-04-03T20:13:16.950Z,1012.9
2017-04-03T20:14:31.164Z,1012.91
2017-04-03T20:15:45.310Z,1012.86
2017-04-03T20:16:59.663Z,1012.82
2017-04-03T20:18:14.096Z,1012.73
2017-04-03T20:19:28.034Z,1012.89
2017-04-03T20:20:43.426Z,1012.94
2017-04-03T20:21:57.802Z,1013.07
2017-04-03T20:23:11.762Z,1012.95
2017-04-03T20:24:26.234Z,1012.78
2017-04-03T20:25:40.796Z,1012.79
2017-04-03T20:26:54.706Z,1012.87
2017-04-03T20:28:09.711Z,1013
2017-04-03T20:29:23.301Z,1012.91
2017-04-03T20:30:37.415Z,1012.85
2017-04-03T20:31:51.925Z,1012.81
2017-04-03T20:33:06.671Z,1012.87
2017-04-03T20:34:21.991Z,1012.96
2017-04-03T20:35:36.184Z,1012.84
2017-04-03T20:36:50.441Z,1012.88
2017-04-03T20:38:04.661Z,1013.07
2017-04-03T20:39:18.582Z,1012.87
2017-04-03T20:40:32.516Z,1012.87
2017-04-03T20:41:46.577Z,1012.8
2017-04-03T20:43:02.065Z,1013.15
2017-04-03T20:44:15.685Z,1012.84
2017-04-03T20:45:29.570Z,1012.85
2017-04-03T20:47:00.832Z,1012.89
2017-04-03T20:48:14.808Z,1012.95
2017-04-03T20:49:28.746Z,1012.85
2017-04-03T20:50:43.437Z,1012.85
2017-04-03T20:52:08.981Z,1012.86
2017-04-03T20:53:23.594Z,1012.81
2017-04-03T20:54:37.486Z,1012.82
2017-04-03T20:55:51.764Z,1012.87
2017-04-03T20:57:07.615Z,1012.82
2017-04-03T20:58:22.170Z,1012.81
2017-04-03T20:59:36.528Z,1012.9
2017-04-03T21:00:50.146Z,1012.86
2017-04-03T21:02:04.679Z,1012.81
2017-04-03T21:03:18.621Z,1012.83
2017-04-03T21:04:33.911Z,1012.78
2017-04-03T21:05:47.969Z,1012.87
2017-04-03T21:07:02.684Z,1012.92
2017-04-03T21:08:17.081Z,1012.84
2017-04-03T21:09:31.121Z,1012.84
2017-04-03T21:10:45.814Z,1012.81
2017-04-03T21:12:00.876Z,1012.82
2017-04-03T21:13:14.486Z,1012.89
2017-04-03T21:14:28.369Z,1012.74
2017-04-03T21:15:42.272Z,1012.97
2017-04-03T21:16:56.458Z,1012.97
2017-04-03T21:18:10.051Z,1012.96
2017-04-03T21:19:41.211Z,1012.98
2017-04-03T21:20:55.343Z,1012.88
2017-04-03T21:22:09.247Z,1012.82
2017-04-03T21:23:23.141Z,1012.83
2017-04-03T21:24:36.852Z,1012.86
2017-04-03T21:25:51.042Z,1012.84
2017-04-03T21:27:05.082Z,1012.84
2017-04-03T21:28:19.344Z,1012.87
2017-04-03T21:29:33.049Z,1012.88
2017-04-03T21:30:47.182Z,1012.93
2017-04-03T21:32:01.335Z,1012.84
2017-04-03T21:33:15.492Z,1012.83
2017-04-03T21:34:29.105Z,1012.8
2017-04-03T21:35:43.052Z,1012.88
2017-04-03T21:36:56.702Z,1012.82
2017-04-03T21:38:11.642Z,1012.89
2017-04-03T21:39:25.502Z,1012.75
2017-04-03T21:40:39.947Z,1012.83
2017-04-03T21:41:53.895Z,1012.73
2017-04-03T21:43:07.956Z,1012.78
2017-04-03T21:44:22.225Z,1012.8
2017-04-03T21:45:36.694Z,1012.83
2017-04-03T21:46:50.303Z,1012.79
2017-04-03T21:48:04.633Z,1012.84
2017-04-03T21:49:18.428Z,1012.84
2017-04-03T21:50:33.067Z,1012.76
2017-04-03T21:51:46.622Z,1012.8
2017-04-03T21:53:00.863Z,1012.84
2017-04-03T21:54:14.429Z,1012.81
2017-04-03T21:55:28.686Z,1012.74
2017-04-03T21:56:42.239Z,1012.81
2017-04-03T21:57:56.764Z,1012.76
2017-04-03T21:59:10.635Z,1012.77
2017-04-03T22:00:24.774Z,1012.75
2017-04-03T22:01:38.533Z,1012.75
2017-04-03T22:02:52.538Z,1012.74
2017-04-03T22:04:09.296Z,1012.72
2017-04-03T22:05:23.692Z,1012.8
2017-04-03T22:06:37.223Z,1012.69
2017-04-03T22:07:52.970Z,1012.75
2017-04-03T22:09:06.877Z,1012.77
2017-04-03T22:10:22.012Z,1012.71
2017-04-03T22:11:36.129Z,1012.71
2017-04-03T22:12:50.481Z,1012.67
2017-04-03T22:14:04.986Z,1012.74
2017-04-03T22:15:19.679Z,1012.73
2017-04-03T22:16:34.000Z,1012.75
2017-04-03T22:17:48.630Z,1012.74
2017-04-03T22:19:02.909Z,1012.78
2017-04-03T22:20:16.865Z,1012.72
2017-04-03T22:21:30.436Z,1012.75
2017-04-03T22:22:45.086Z,1012.69
2017-04-03T22:23:59.043Z,1012.65
2017-04-03T22:25:14.646Z,1012.68
2017-04-03T22:26:28.608Z,1012.69
2017-04-03T22:27:42.504Z,1012.79
2017-04-03T22:28:57.205Z,1012.72
2017-04-03T22:30:10.965Z,1012.73
2017-04-03T22:31:24.550Z,1012.76
2017-04-03T22:32:39.163Z,1012.74
2017-04-03T22:33:53.254Z,1012.74
2017-04-03T22:35:08.547Z,1012.79
2017-04-03T22:36:22.684Z,1012.79
2017-04-03T22:37:37.755Z,1012.77
2017-04-03T22:38:51.419Z,1012.77
2017-04-03T22:40:23.343Z,1012.73
2017-04-03T22:41:37.044Z,1012.73
2017-04-03T22:42:53.115Z,1012.68
2017-04-03T22:44:07.331Z,1012.71
2017-04-03T22:45:21.659Z,1012.7
2017-04-03T22:46:36.348Z,1012.66
2017-04-03T22:47:50.240Z,1012.7
2017-04-03T22:49:04.740Z,1012.68
2017-04-03T22:50:19.037Z,1012.65
2017-04-03T22:51:33.662Z,1012.63
2017-04-03T22:52:47.275Z,1012.6
2017-04-03T22:54:01.104Z,1012.63
2017-04-03T22:55:14.703Z,1012.6
2017-04-03T22:56:44.441Z,1012.62
2017-04-03T22:57:59.658Z,1012.67
2017-04-03T22:59:13.571Z,1012.65
2017-04-03T23:00:27.479Z,1012.65
2017-04-03T23:01:41.194Z,1012.69
2017-04-03T23:02:55.388Z,1012.65
2017-04-03T23:04:09.659Z,1012.69
2017-04-03T23:05:24.332Z,1012.7
2017-04-03T23:06:38.271Z,1012.71
2017-04-03T23:07:52.266Z,1012.66
2017-04-03T23:09:06.234Z,1012.64
2017-04-03T23:10:20.785Z,1012.68
2017-04-03T23:11:34.375Z,1012.65
2017-04-03T23:12:49.856Z,1012.66
2017-04-03T23:14:03.506Z,1012.66
2017-04-03T23:15:19.458Z,1012.6
2017-04-03T23:16:33.624Z,1012.59
2017-04-03T23:17:47.543Z,1012.62
2017-04-03T23:19:01.109Z,1012.63
2017-04-03T23:20:16.006Z,1012.61
2017-04-03T23:21:32.382Z,1012.62
2017-04-03T23:22:46.480Z,1012.68
2017-04-03T23:24:00.043Z,1012.62
2017-04-03T23:25:14.190Z,1012.58
2017-04-03T23:26:28.311Z,1012.52
2017-04-03T23:27:42.486Z,1012.54
2017-04-03T23:28:56.651Z,1012.64
2017-04-03T23:30:10.598Z,1012.57
2017-04-03T23:31:24.499Z,1012.59
2017-04-03T23:32:39.169Z,1012.6
2017-04-03T23:33:52.723Z,1012.57
2017-04-03T23:35:07.819Z,1012.59
2017-04-03T23:36:21.413Z,1012.6
2017-04-03T23:37:36.732Z,1012.66
2017-04-03T23:38:50.334Z,1012.57
2017-04-03T23:40:04.317Z,1012.6
2017-04-03T23:41:18.956Z,1012.57
2017-04-03T23:42:33.100Z,1012.53
2017-04-03T23:43:46.622Z,1012.52
2017-04-03T23:45:00.870Z,1012.59
2017-04-03T23:46:15.124Z,1012.54
2017-04-03T23:47:29.643Z,1012.58
2017-04-03T23:48:43.223Z,1012.53
2017-04-03T23:49:57.604Z,1012.57
2017-04-03T23:51:11.236Z,1012.6
2017-04-03T23:52:25.743Z,1012.52
2017-04-03T23:53:39.873Z,1012.49
2017-04-03T23:54:53.659Z,1012.48
2017-04-03T23:56:07.182Z,1012.53
2017-04-03T23:57:21.205Z,1012.53
2017-04-03T23:58:34.789Z,1012.47
